createdAt,value
2018-09-21T00:02:06.530Z,19.20
2018-09-21T00:04:34.983Z,19.20
2018-09-21T00:07:03.465Z,19.20
2018-09-21T00:09:31.993Z,19.10
2018-09-21T00:12:00.542Z,19.10
2018-09-21T00:14:29.053Z,19.10
2018-09-21T00:16:57.497Z,19.10
2018-09-21T00:19:26.011Z,19.00
2018-09-21T00:21:55.489Z,19.00
2018-09-21T00:24:24.001Z,19.00
2018-09-21T00:26:52.465Z,18.90
2018-09-21T00:29:20.977Z,18.90
2018-09-21T00:31:49.550Z,18.90
2018-09-21T00:34:18.090Z,18.80
2018-09-21T00:36:46.754Z,18.80
2018-09-21T00:39:15.257Z,18.80
2018-09-21T00:41:43.903Z,18.80
2018-09-21T00:44:12.426Z,18.80
2018-09-21T00:46:41.038Z,18.80
2018-09-21T00:49:09.503Z,18.80
2018-09-21T00:51:38.009Z,18.80
2018-09-21T00:54:06.969Z,18.70
2018-09-21T00:56:35.462Z,18.70
2018-09-21T00:59:03.999Z,18.70
2018-09-21T01:01:32.546Z,18.70
2018-09-21T01:04:01.058Z,18.60
2018-09-21T01:06:29.630Z,18.60
2018-09-21T01:08:58.197Z,18.60
2018-09-21T01:11:26.807Z,18.60
2018-09-21T01:13:56.262Z,18.60
2018-09-21T01:16:24.753Z,18.50
2018-09-21T01:18:53.261Z,18.60
2018-09-21T01:21:21.794Z,18.60
2018-09-21T01:23:50.285Z,18.50
2018-09-21T01:26:18.805Z,18.50
2018-09-21T01:28:47.233Z,18.50
2018-09-21T01:31:15.784Z,18.40
2018-09-21T01:33:44.314Z,18.40
2018-09-21T01:36:12.841Z,18.40
2018-09-21T01:38:41.457Z,18.40
2018-09-21T01:41:10.037Z,18.30
2018-09-21T01:43:38.533Z,18.30
2018-09-21T01:46:07.112Z,18.20
2018-09-21T01:48:35.645Z,18.10
2018-09-21T01:51:04.213Z,18.10
2018-09-21T01:53:32.680Z,18.00
2018-09-21T01:56:01.153Z,18.00
2018-09-21T01:58:29.681Z,18.00
2018-09-21T02:00:58.230Z,18.00
2018-09-21T02:03:26.742Z,18.00
2018-09-21T02:05:55.289Z,18.00
2018-09-21T02:08:23.809Z,18.00
2018-09-21T02:10:52.349Z,18.00
2018-09-21T02:13:20.874Z,18.00
2018-09-21T02:15:49.501Z,18.00
2018-09-21T02:18:18.053Z,17.90
2018-09-21T02:20:46.621Z,17.90
2018-09-21T02:23:15.097Z,17.80
2018-09-21T02:25:43.541Z,17.80
2018-09-21T02:28:12.057Z,17.80
2018-09-21T02:30:40.529Z,17.80
2018-09-21T02:33:09.017Z,17.70
2018-09-21T02:35:37.501Z,17.60
2018-09-21T02:38:06.249Z,17.50
2018-09-21T02:40:34.791Z,17.50
2018-09-21T02:43:03.322Z,17.50
2018-09-21T02:45:31.814Z,17.50
2018-09-21T02:48:00.324Z,17.40
2018-09-21T02:50:28.761Z,17.40
2018-09-21T02:52:57.485Z,17.40
2018-09-21T02:55:26.061Z,17.40
2018-09-21T02:57:54.515Z,17.40
2018-09-21T03:00:23.079Z,17.40
2018-09-21T03:02:51.593Z,17.30
2018-09-21T03:05:20.069Z,17.30
2018-09-21T03:07:48.615Z,17.20
2018-09-21T03:10:17.177Z,17.20
2018-09-21T03:12:46.643Z,17.20
2018-09-21T03:15:15.154Z,17.20
2018-09-21T03:17:43.606Z,17.20
2018-09-21T03:20:12.119Z,17.10
2018-09-21T03:22:40.606Z,17.10
2018-09-21T03:25:09.154Z,17.10
2018-09-21T03:27:37.711Z,17.10
2018-09-21T03:30:06.426Z,17.10
2018-09-21T03:32:34.938Z,17.10
2018-09-21T03:35:03.563Z,17.10
2018-09-21T03:37:32.106Z,17.10
2018-09-21T03:40:00.661Z,17.10
2018-09-21T03:42:29.170Z,17.20
2018-09-21T03:44:58.742Z,17.20
2018-09-21T03:47:27.305Z,17.20
2018-09-21T03:49:55.840Z,17.20
2018-09-21T03:52:24.427Z,17.20
2018-09-21T03:54:52.986Z,17.20
2018-09-21T03:57:21.541Z,17.20
2018-09-21T03:59:50.030Z,17.20
2018-09-21T04:02:18.553Z,17.20
2018-09-21T04:04:47.093Z,17.20
2018-09-21T04:07:15.646Z,17.20
2018-09-21T04:09:44.201Z,17.20
2018-09-21T04:12:12.763Z,17.10
2018-09-21T04:14:41.265Z,17.20
2018-09-21T04:17:09.749Z,17.20
2018-09-21T04:19:38.438Z,17.20
2018-09-21T04:22:06.990Z,17.10
2018-09-21T04:24:35.478Z,17.10
2018-09-21T04:27:05.045Z,17.10
2018-09-21T04:29:33.537Z,17.10
2018-09-21T04:32:02.087Z,17.10
2018-09-21T04:34:31.552Z,17.10
2018-09-21T04:37:00.061Z,17.10
2018-09-21T04:39:29.629Z,17.10
2018-09-21T04:41:58.484Z,17.00
2018-09-21T04:44:27.038Z,17.00
2018-09-21T04:46:55.533Z,17.00
2018-09-21T04:49:25.011Z,17.00
2018-09-21T04:51:53.524Z,17.00
2018-09-21T04:54:22.038Z,16.90
2018-09-21T04:56:50.606Z,16.90
2018-09-21T04:59:20.186Z,16.90
2018-09-21T05:01:48.890Z,16.90
2018-09-21T05:04:17.418Z,16.90
2018-09-21T05:06:45.896Z,16.90
2018-09-21T05:09:14.406Z,16.90
2018-09-21T05:11:42.850Z,16.90
2018-09-21T05:14:11.450Z,16.80
2018-09-21T05:16:40.074Z,16.90
2018-09-21T05:19:08.649Z,16.90
2018-09-21T05:21:37.192Z,16.80
2018-09-21T05:24:06.006Z,16.80
2018-09-21T05:26:34.498Z,16.80
2018-09-21T05:29:03.977Z,16.70
2018-09-21T05:31:32.489Z,16.70
2018-09-21T05:34:01.105Z,16.70
2018-09-21T05:36:29.622Z,16.80
2018-09-21T05:38:58.133Z,16.80
2018-09-21T05:41:26.593Z,16.90
2018-09-21T05:43:55.099Z,16.80
2018-09-21T05:46:23.674Z,16.90
2018-09-21T05:48:52.124Z,16.80
2018-09-21T05:51:20.649Z,16.80
2018-09-21T05:53:50.257Z,16.80
2018-09-21T05:56:18.834Z,16.90
2018-09-21T05:58:47.382Z,16.90
2018-09-21T06:01:16.956Z,17.00
2018-09-21T06:03:45.502Z,17.10
2018-09-21T06:06:13.986Z,17.10
2018-09-21T06:08:42.581Z,17.10
2018-09-21T06:11:11.158Z,17.10
2018-09-21T06:13:39.919Z,17.10
2018-09-21T06:16:08.433Z,17.10
2018-09-21T06:18:37.994Z,17.10
2018-09-21T06:21:06.739Z,17.20
2018-09-21T06:23:35.320Z,17.20
2018-09-21T06:26:03.877Z,17.30
2018-09-21T06:28:32.411Z,17.40
2018-09-21T06:31:00.950Z,17.50
2018-09-21T06:33:29.526Z,17.50
2018-09-21T06:35:57.999Z,17.50
2018-09-21T06:38:26.496Z,17.60
2018-09-21T06:40:55.974Z,17.60
2018-09-21T06:43:24.504Z,17.70
2018-09-21T06:45:53.034Z,17.80
2018-09-21T06:48:21.542Z,17.80
2018-09-21T06:50:50.161Z,17.80
2018-09-21T06:53:19.618Z,17.80
2018-09-21T06:55:48.242Z,17.90
2018-09-21T06:58:16.775Z,18.00
2018-09-21T07:00:45.306Z,18.10
2018-09-21T07:03:14.771Z,18.20
2018-09-21T07:05:44.442Z,18.20
2018-09-21T07:08:12.985Z,18.40
2018-09-21T07:10:41.529Z,18.40
2018-09-21T07:13:10.102Z,18.50
2018-09-21T07:15:38.593Z,18.60
2018-09-21T07:18:07.126Z,18.70
2018-09-21T07:20:35.705Z,18.70
2018-09-21T07:23:04.402Z,18.70
2018-09-21T07:25:32.925Z,18.80
2018-09-21T07:28:01.434Z,18.80
2018-09-21T07:30:30.043Z,18.90
2018-09-21T07:32:58.646Z,19.00
2018-09-21T07:35:27.160Z,19.00
2018-09-21T07:37:55.677Z,19.10
2018-09-21T07:40:24.173Z,19.10
2018-09-21T07:42:52.831Z,19.20
2018-09-21T07:45:21.291Z,19.30
2018-09-21T07:47:49.849Z,19.30
2018-09-21T07:50:18.363Z,19.30
2018-09-21T07:52:46.817Z,19.40
2018-09-21T07:55:15.374Z,19.60
2018-09-21T07:57:45.889Z,19.60
2018-09-21T08:00:14.313Z,19.70
2018-09-21T08:02:42.853Z,19.80
2018-09-21T08:05:11.323Z,19.90
2018-09-21T08:07:39.821Z,20.00
2018-09-21T08:10:08.397Z,20.20
2018-09-21T08:12:36.874Z,20.30
2018-09-21T08:15:05.456Z,20.40
2018-09-21T08:17:33.959Z,20.40
2018-09-21T08:20:02.490Z,20.50
2018-09-21T08:22:30.981Z,20.70
2018-09-21T08:24:59.503Z,20.80
2018-09-21T08:27:28.289Z,20.90
2018-09-21T08:29:56.819Z,21.00
2018-09-21T08:32:25.349Z,21.10
2018-09-21T08:34:54.837Z,21.10
2018-09-21T08:37:23.390Z,21.20
2018-09-21T08:39:52.826Z,21.20
2018-09-21T08:42:21.279Z,21.30
2018-09-21T08:44:49.837Z,21.40
2018-09-21T08:47:18.365Z,21.50
2018-09-21T08:49:46.885Z,21.60
2018-09-21T08:52:15.471Z,21.60
2018-09-21T08:54:44.079Z,21.70
2018-09-21T08:57:12.634Z,21.80
2018-09-21T08:59:41.177Z,21.90
2018-09-21T09:02:09.675Z,21.90
2018-09-21T09:04:38.173Z,22.00
2018-09-21T09:07:06.957Z,22.10
2018-09-21T09:09:35.437Z,22.20
2018-09-21T09:12:03.928Z,22.40
2018-09-21T09:14:32.550Z,22.50
2018-09-21T09:17:01.088Z,22.60
2018-09-21T09:19:29.549Z,22.70
2018-09-21T09:21:57.993Z,22.80
2018-09-21T09:24:26.504Z,22.90
2018-09-21T09:26:54.938Z,23.00
2018-09-21T09:29:23.542Z,23.10
2018-09-21T09:31:51.987Z,23.20
2018-09-21T09:34:20.460Z,23.30
2018-09-21T09:36:48.992Z,23.50
2018-09-21T09:39:17.405Z,23.60
2018-09-21T09:41:45.860Z,23.60
2018-09-21T09:44:14.353Z,23.80
2018-09-21T09:46:42.867Z,23.80
2018-09-21T09:49:11.332Z,23.90
2018-09-21T09:51:39.782Z,24.10
2018-09-21T09:54:08.222Z,24.20
2018-09-21T09:56:36.710Z,24.30
2018-09-21T09:59:05.181Z,24.40
2018-09-21T10:01:33.632Z,24.60
2018-09-21T10:04:02.118Z,24.70
2018-09-21T10:06:30.589Z,24.90
2018-09-21T10:08:59.034Z,25.00
2018-09-21T10:11:27.702Z,25.20
2018-09-21T10:13:56.178Z,25.30
2018-09-21T10:16:24.666Z,25.40
2018-09-21T10:18:55.290Z,25.60
2018-09-21T10:21:23.928Z,25.70
2018-09-21T10:23:52.437Z,25.80
2018-09-21T10:26:20.989Z,25.90
2018-09-21T10:28:49.596Z,26.00
2018-09-21T10:31:17.989Z,26.20
2018-09-21T10:33:46.760Z,26.40
2018-09-21T10:36:16.194Z,26.50
2018-09-21T10:38:44.746Z,26.70
2018-09-21T10:41:13.350Z,26.90
2018-09-21T10:43:42.062Z,27.00
2018-09-21T10:46:10.617Z,27.20
2018-09-21T10:48:39.150Z,27.40
2018-09-21T10:51:07.670Z,27.60
2018-09-21T10:53:36.581Z,27.70
2018-09-21T10:56:05.190Z,27.90
2018-09-21T10:58:33.761Z,28.00
2018-09-21T11:01:03.263Z,28.10
2018-09-21T11:03:31.839Z,28.30
2018-09-21T11:06:00.377Z,28.30
2018-09-21T11:08:28.882Z,28.50
2018-09-21T11:10:57.397Z,28.50
2018-09-21T11:13:25.944Z,28.60
2018-09-21T11:15:55.410Z,28.70
2018-09-21T11:18:24.048Z,28.90
2018-09-21T11:20:54.329Z,29.10
2018-09-21T11:23:22.816Z,29.20
2018-09-21T11:25:51.389Z,29.30
2018-09-21T11:28:19.881Z,29.60
2018-09-21T11:30:48.857Z,29.70
2018-09-21T11:33:17.486Z,29.80
2018-09-21T11:35:46.041Z,29.90
2018-09-21T11:38:14.563Z,30.00
2018-09-21T11:40:43.113Z,30.10
2018-09-21T11:43:11.714Z,30.10
2018-09-21T11:45:40.191Z,30.20
2018-09-21T11:48:08.861Z,30.30
2018-09-21T11:50:37.354Z,30.40
2018-09-21T11:53:05.897Z,30.50
2018-09-21T11:55:34.397Z,30.60
2018-09-21T11:58:02.889Z,30.70
2018-09-21T12:00:31.356Z,30.80
2018-09-21T12:03:00.922Z,31.00
2018-09-21T12:05:29.481Z,31.00
2018-09-21T12:07:58.029Z,31.10
2018-09-21T12:10:26.582Z,31.30
2018-09-21T12:12:55.032Z,31.40
2018-09-21T12:15:23.633Z,31.60
2018-09-21T12:17:52.137Z,31.70
2018-09-21T12:20:20.667Z,31.80
2018-09-21T12:22:49.146Z,32.00
2018-09-21T12:25:17.625Z,32.10
2018-09-21T12:27:46.072Z,32.30
2018-09-21T12:30:15.644Z,32.40
2018-09-21T12:32:44.157Z,32.60
2018-09-21T12:35:12.701Z,32.70
2018-09-21T12:37:41.274Z,32.90
2018-09-21T12:40:09.777Z,32.90
2018-09-21T12:42:38.395Z,32.90
2018-09-21T12:45:06.990Z,33.00
2018-09-21T12:47:35.506Z,33.10
2018-09-21T12:50:03.989Z,33.30
2018-09-21T12:52:32.456Z,33.40
2018-09-21T12:55:00.966Z,33.60
2018-09-21T12:57:29.556Z,33.80
2018-09-21T12:59:58.173Z,33.90
2018-09-21T13:02:26.792Z,34.10
2018-09-21T13:04:55.400Z,34.20
2018-09-21T13:07:23.933Z,34.30
2018-09-21T13:09:52.476Z,34.40
2018-09-21T13:12:21.005Z,34.60
2018-09-21T13:14:49.529Z,34.70
2018-09-21T13:17:18.062Z,34.60
2018-09-21T13:19:46.570Z,34.70
2018-09-21T13:22:15.162Z,34.60
2018-09-21T13:24:43.614Z,34.60
2018-09-21T13:27:13.148Z,34.80
2018-09-21T13:29:41.625Z,34.90
2018-09-21T13:32:10.133Z,35.00
2018-09-21T13:34:38.656Z,35.00
2018-09-21T13:37:07.206Z,35.10
2018-09-21T13:39:35.741Z,35.20
2018-09-21T13:42:04.262Z,35.40
2018-09-21T13:44:32.799Z,35.60
2018-09-21T13:47:01.277Z,35.80
2018-09-21T13:49:29.763Z,35.90
2018-09-21T13:51:58.280Z,36.00
2018-09-21T13:54:26.750Z,36.10
2018-09-21T13:56:56.217Z,36.20
2018-09-21T13:59:24.922Z,36.30
2018-09-21T14:01:53.389Z,36.50
2018-09-21T14:04:21.865Z,36.60
2018-09-21T14:06:50.391Z,36.80
2018-09-21T14:09:18.834Z,36.80
2018-09-21T14:11:47.458Z,36.70
2018-09-21T14:14:16.989Z,36.70
2018-09-21T14:16:45.498Z,36.90
2018-09-21T14:19:14.017Z,37.40
2018-09-21T14:21:42.601Z,37.60
2018-09-21T14:24:11.114Z,38.00
2018-09-21T14:26:39.645Z,38.80
2018-09-21T14:29:08.157Z,39.50
2018-09-21T14:31:37.701Z,39.60
2018-09-21T14:34:06.301Z,39.80
2018-09-21T14:36:35.854Z,40.30
2018-09-21T14:39:08.086Z,40.80
2018-09-21T14:41:36.573Z,41.20
2018-09-21T14:44:05.466Z,41.60
2018-09-21T14:46:34.038Z,41.80
2018-09-21T14:49:03.040Z,41.70
2018-09-21T14:51:31.572Z,41.80
2018-09-21T14:53:59.493Z,42.00
2018-09-21T14:56:27.336Z,42.20
2018-09-21T14:58:55.072Z,42.40
2018-09-21T15:01:22.777Z,42.80
2018-09-21T15:03:50.570Z,43.00
2018-09-21T15:06:18.368Z,42.80
2018-09-21T15:08:46.897Z,42.60
2018-09-21T15:11:15.606Z,42.50
2018-09-21T15:13:44.270Z,42.40
2018-09-21T15:16:12.811Z,42.40
2018-09-21T15:18:41.374Z,42.10
2018-09-21T15:21:09.857Z,42.00
2018-09-21T15:23:38.410Z,41.80
2018-09-21T15:26:06.922Z,41.50
2018-09-21T15:28:35.461Z,40.90
2018-09-21T15:31:04.010Z,39.80
2018-09-21T15:33:32.584Z,38.60
2018-09-21T15:36:01.270Z,37.60
2018-09-21T15:38:29.802Z,36.60
2018-09-21T15:40:58.325Z,35.70
2018-09-21T15:43:26.897Z,34.90
2018-09-21T15:45:55.363Z,34.20
2018-09-21T15:48:23.851Z,33.50
2018-09-21T15:50:52.467Z,33.00
2018-09-21T15:53:21.026Z,32.50
2018-09-21T15:55:49.630Z,32.00
2018-09-21T15:58:18.241Z,31.50
2018-09-21T16:00:46.849Z,31.10
2018-09-21T16:03:15.368Z,30.70
2018-09-21T16:05:43.837Z,30.40
2018-09-21T16:08:12.326Z,30.10
2018-09-21T16:10:40.871Z,29.80
2018-09-21T16:13:09.385Z,29.50
2018-09-21T16:15:37.878Z,29.20
2018-09-21T16:18:06.353Z,28.90
2018-09-21T16:20:34.813Z,28.70
2018-09-21T16:23:03.423Z,28.50
2018-09-21T16:25:32.097Z,28.30
2018-09-21T16:28:00.586Z,28.00
2018-09-21T16:30:29.111Z,27.80
2018-09-21T16:32:57.666Z,27.60
2018-09-21T16:35:27.265Z,27.40
2018-09-21T16:37:56.774Z,27.20
2018-09-21T16:40:25.354Z,27.00
2018-09-21T16:42:54.850Z,26.80
2018-09-21T16:45:23.351Z,26.60
2018-09-21T16:47:51.873Z,26.50
2018-09-21T16:50:20.377Z,26.30
2018-09-21T16:52:48.882Z,26.00
2018-09-21T16:55:18.405Z,25.80
2018-09-21T16:57:46.993Z,25.70
2018-09-21T17:00:15.521Z,25.50
2018-09-21T17:02:44.054Z,25.30
2018-09-21T17:05:12.576Z,25.20
2018-09-21T17:10:27.090Z,25.00
2018-09-21T17:12:55.541Z,24.80
2018-09-21T17:15:24.057Z,24.70
2018-09-21T17:17:52.525Z,24.60
2018-09-21T17:20:20.973Z,24.50
2018-09-21T17:22:49.490Z,24.50
2018-09-21T17:25:17.989Z,24.30
2018-09-21T17:27:46.518Z,24.20
2018-09-21T17:30:15.022Z,24.20
2018-09-21T17:32:43.526Z,24.10
2018-09-21T17:35:12.104Z,24.00
2018-09-21T17:37:40.589Z,23.90
2018-09-21T17:40:09.057Z,23.90
2018-09-21T17:42:37.613Z,23.80
2018-09-21T17:45:06.321Z,23.70
2018-09-21T17:47:34.821Z,23.70
2018-09-21T17:50:03.290Z,23.60
2018-09-21T17:52:31.860Z,23.60
2018-09-21T17:55:00.327Z,23.50
2018-09-21T17:57:28.863Z,23.40
2018-09-21T17:59:57.398Z,23.40
2018-09-21T18:02:25.926Z,23.40
2018-09-21T18:04:54.525Z,23.50
2018-09-21T18:07:23.082Z,23.40
2018-09-21T18:09:53.114Z,23.40
2018-09-21T18:12:21.710Z,23.40
2018-09-21T18:14:51.270Z,23.40
2018-09-21T18:17:20.021Z,23.30
2018-09-21T18:19:48.525Z,23.30
2018-09-21T18:22:17.051Z,23.30
2018-09-21T18:24:45.626Z,23.30
2018-09-21T18:27:14.065Z,23.20
2018-09-21T18:29:42.598Z,23.20
2018-09-21T18:32:11.062Z,23.20
2018-09-21T18:34:39.521Z,23.20
2018-09-21T18:37:09.070Z,23.20
2018-09-21T18:39:37.650Z,23.10
2018-09-21T18:42:06.178Z,23.10
2018-09-21T18:44:34.667Z,23.10
2018-09-21T18:47:03.179Z,23.00
2018-09-21T18:49:31.629Z,23.00
2018-09-21T18:52:00.153Z,23.00
2018-09-21T18:54:28.591Z,23.00
2018-09-21T18:56:57.138Z,23.00
2018-09-21T18:59:25.637Z,23.00
2018-09-21T19:01:54.186Z,22.90
2018-09-21T19:04:22.649Z,22.90
2018-09-21T19:06:51.146Z,23.00
2018-09-21T19:09:19.597Z,23.00
2018-09-21T19:11:48.207Z,23.10
2018-09-21T19:14:16.722Z,23.10
2018-09-21T19:16:45.233Z,23.10
2018-09-21T19:19:13.702Z,23.10
2018-09-21T19:21:42.238Z,23.10
2018-09-21T19:24:10.712Z,23.00
2018-09-21T19:26:39.225Z,23.00
2018-09-21T19:29:07.655Z,23.00
2018-09-21T19:31:36.293Z,23.00
2018-09-21T19:34:04.855Z,23.00
2018-09-21T19:36:33.385Z,22.90
2018-09-21T19:39:01.914Z,22.90
2018-09-21T19:41:30.428Z,22.90
2018-09-21T19:43:59.922Z,22.80
2018-09-21T19:46:28.527Z,22.80
2018-09-21T19:48:57.040Z,22.80
2018-09-21T19:51:25.602Z,22.70
2018-09-21T19:53:54.125Z,22.70
2018-09-21T19:56:22.633Z,22.70
2018-09-21T19:58:51.183Z,22.70
2018-09-21T20:01:19.673Z,22.70
2018-09-21T20:03:48.117Z,22.70
2018-09-21T20:06:16.589Z,22.60
2018-09-21T20:08:45.114Z,22.60
2018-09-21T20:11:13.630Z,22.60
2018-09-21T20:13:43.185Z,22.60
2018-09-21T20:16:11.682Z,22.60
2018-09-21T20:18:40.173Z,22.50
2018-09-21T20:21:08.677Z,22.50
2018-09-21T20:23:37.235Z,22.50
2018-09-21T20:26:05.743Z,22.50
2018-09-21T20:28:34.312Z,22.50
2018-09-21T20:31:08.273Z,22.50
2018-09-21T20:33:37.389Z,22.40
2018-09-21T20:36:06.961Z,22.40
2018-09-21T20:38:35.486Z,22.40
2018-09-21T20:41:03.984Z,22.40
2018-09-21T20:43:32.421Z,22.40
2018-09-21T20:46:00.926Z,22.40
2018-09-21T20:48:30.457Z,22.40
2018-09-21T20:50:59.041Z,22.40
2018-09-21T20:53:27.639Z,22.30
2018-09-21T20:55:56.234Z,22.30
2018-09-21T20:58:25.674Z,22.30
2018-09-21T21:00:54.158Z,22.30
2018-09-21T21:03:22.694Z,22.30
2018-09-21T21:05:51.309Z,22.30
2018-09-21T21:08:19.965Z,22.30
2018-09-21T21:10:48.481Z,22.30
2018-09-21T21:13:17.230Z,22.30
2018-09-21T21:15:45.685Z,22.30
2018-09-21T21:18:14.149Z,22.20
2018-09-21T21:20:42.671Z,21.90
2018-09-21T21:23:11.193Z,21.90
2018-09-21T21:25:39.717Z,21.90
2018-09-21T21:28:08.257Z,21.90
2018-09-21T21:30:36.825Z,21.90
2018-09-21T21:33:05.417Z,21.90
2018-09-21T21:35:33.949Z,21.80
2018-09-21T21:38:02.394Z,21.60
2018-09-21T21:40:30.922Z,21.50
2018-09-21T21:42:59.458Z,21.30
2018-09-21T21:45:27.945Z,21.20
2018-09-21T21:47:56.565Z,21.10
2018-09-21T21:50:25.029Z,20.90
2018-09-21T21:53:56.845Z,20.80
2018-09-21T21:56:25.345Z,20.70
2018-09-21T21:58:53.985Z,20.60
2018-09-21T22:01:27.760Z,20.50
2018-09-21T22:03:56.273Z,20.50
2018-09-21T22:06:24.934Z,20.50
2018-09-21T22:08:53.441Z,20.40
2018-09-21T22:11:27.301Z,20.40
2018-09-21T22:14:01.033Z,20.40
2018-09-21T22:16:29.521Z,20.30
2018-09-21T22:18:58.116Z,20.20
2018-09-21T22:21:26.553Z,20.20
2018-09-21T22:23:56.302Z,20.20
2018-09-21T22:26:24.757Z,20.20
2018-09-21T22:28:53.257Z,20.10
2018-09-21T22:31:21.744Z,20.00
2018-09-21T22:33:50.208Z,20.00
2018-09-21T22:36:18.667Z,20.00
2018-09-21T22:38:48.173Z,20.10
2018-09-21T22:41:17.110Z,20.20
2018-09-21T22:43:45.666Z,20.30
2018-09-21T22:46:14.310Z,20.40
2018-09-21T22:48:43.246Z,20.40
2018-09-21T22:51:11.745Z,20.40
2018-09-21T22:53:40.235Z,20.30
2018-09-21T22:56:08.985Z,20.20
2018-09-21T22:58:38.293Z,20.00
2018-09-21T23:01:07.170Z,19.90
2018-09-21T23:03:35.712Z,19.80
2018-09-21T23:08:44.029Z,19.90
2018-09-21T23:11:13.546Z,20.10
2018-09-21T23:13:42.093Z,20.20
2018-09-21T23:16:11.617Z,20.30
2018-09-21T23:18:40.161Z,20.30
2018-09-21T23:21:08.861Z,20.40
2018-09-21T23:23:37.337Z,20.50
2018-09-21T23:26:05.853Z,20.50
2018-09-21T23:28:34.397Z,20.60
2018-09-21T23:31:02.916Z,20.60
2018-09-21T23:33:31.357Z,20.70
2018-09-21T23:36:00.897Z,20.70
2018-09-21T23:38:29.334Z,20.70
2018-09-21T23:40:57.865Z,20.70
2018-09-21T23:43:26.302Z,20.70
2018-09-21T23:45:54.821Z,20.70
2018-09-21T23:48:23.337Z,20.70
2018-09-21T23:50:51.850Z,20.60
2018-09-21T23:53:21.469Z,20.60
2018-09-21T23:55:49.984Z,20.50
2018-09-21T23:58:18.461Z,20.30
